Lostant, IL

1:33 AM CST on January 30, 2015 (GMT -0600)
Illinois Valley Regional-Duncan | Change Station
CLOSE
Current Station
Airport
Location: Peru,
Elevation: 653 ft
Nearby Weather Stations

Elev 653 ft 41.35 °N, 89.15 °W | Updated 18 minutes ago

Overcast
Overcast
28 °F
Feels Like 16 °F
N
15
Wind Variable Wind from NW

Today
High -- | Low -- °F
--% Chance of Precip.
Yesterday
High -- | Low -- °F
Precip. -- in
7:09 AM 5:10 PM
Waxing Gibbous, 80% visible
Pressure 30.40 in
Visibility 10.0 miles
Clouds Mostly Cloudy 4700 ft
Windchill 16 °F
Dew Point 20 °F
Humidity 74%
Rainfall 0.00 in
Snow Depth Not available.
UV 0 out of 12
Pollen .90 out of 12
Air Quality Not available.
Flu Activity Not available.
METAR KVYS 300715Z AUTO 32013KT 10SM BKN047 M02/M06 A3040 RMK AO2 T10251065

More Conditions Fewer Conditions

Pressure 30.40 in
Visibility 10.0 miles
Clouds Mostly Cloudy 4700 ft
Windchill 16 °F
Dew Point 20 °F
Humidity 74%
Rainfall 0.00 in
Snow Depth Not available.
UV 0 out of 12
Pollen .90 out of 12
Air Quality Not available.
Flu Activity Not available.
METAR KVYS 300715Z AUTO 32013KT 10SM BKN047 M02/M06 A3040 RMK AO2 T10251065

More Conditions Fewer Conditions

10-Day Weather Forecast

Almanac

Astronomy

Jan. 30, 2015 Rise Set
Actual Time
Civil Twilight
Nautical Twilight
Astronomical Twilight
Moon
Length of Visible Light
Length of Day
Tomorrow will be .
, % of the Moon is Illuminated

Today's Extremes

State Highs State Lows

Community

WunderPhotos

Upload Photos

1,791,726 photos uploaded!

WunderBlogs® & News

Nearby

Air Quality

  Air Quality AQ Index Pollutant
Not available.

Snow Depth

Station Depth Elevation

Earthquake Activity

City Distance Mag. Time & Date
Minimum magnitude displayed is 2.5.

Coastal Water Temperatures

Place Temperature

Nearby Weather Stations